createdAt,value
2019-04-25T00:00:11.690Z,16.30
2019-04-25T00:02:42.635Z,16.30
2019-04-25T00:05:12.705Z,16.30
2019-04-25T00:07:42.505Z,16.30
2019-04-25T00:10:13.598Z,16.30
2019-04-25T00:12:43.214Z,16.30
2019-04-25T00:15:12.328Z,16.30
2019-04-25T00:17:42.317Z,16.30
2019-04-25T00:20:11.986Z,16.40
2019-04-25T00:22:42.862Z,16.40
2019-04-25T00:25:25.622Z,16.40
2019-04-25T00:27:54.083Z,16.50
2019-04-25T00:30:24.203Z,16.50
2019-04-25T00:32:53.648Z,16.50
2019-04-25T00:35:22.148Z,16.50
2019-04-25T00:37:52.511Z,16.40
2019-04-25T00:40:21.959Z,16.40
2019-04-25T00:42:53.427Z,16.20
2019-04-25T00:45:22.288Z,16.20
2019-04-25T00:47:51.882Z,16.10
2019-04-25T00:50:21.949Z,16.10
2019-04-25T00:52:52.209Z,16.10
2019-04-25T00:55:28.632Z,16.00
2019-04-25T00:57:53.677Z,15.90
2019-04-25T01:00:23.928Z,15.90
2019-04-25T01:02:54.642Z,15.80
2019-04-25T01:05:23.141Z,15.90
2019-04-25T01:07:53.156Z,15.80
2019-04-25T01:10:23.173Z,15.80
2019-04-25T01:12:52.341Z,15.80
2019-04-25T01:15:22.708Z,15.80
2019-04-25T01:17:52.350Z,15.80
2019-04-25T01:20:21.927Z,15.70
2019-04-25T01:22:51.371Z,15.70
2019-04-25T01:25:19.945Z,15.70
2019-04-25T01:27:48.429Z,15.70
2019-04-25T01:30:18.814Z,15.80
2019-04-25T01:32:48.308Z,15.80
2019-04-25T01:35:21.372Z,15.70
2019-04-25T01:37:54.879Z,15.80
2019-04-25T01:40:37.914Z,15.80
2019-04-25T01:43:08.064Z,15.90
2019-04-25T01:45:37.121Z,15.90
2019-04-25T01:48:05.615Z,15.90
2019-04-25T01:50:35.248Z,15.90
2019-04-25T01:53:03.890Z,15.90
2019-04-25T01:55:33.568Z,15.90
2019-04-25T01:58:03.773Z,16.00
2019-04-25T02:00:39.883Z,16.00
2019-04-25T02:03:08.702Z,16.00
2019-04-25T02:05:37.434Z,16.00
2019-04-25T02:08:07.083Z,16.10
2019-04-25T02:10:35.642Z,16.10
2019-04-25T02:13:11.735Z,16.00
2019-04-25T02:15:40.298Z,16.00
2019-04-25T02:18:08.781Z,16.00
2019-04-25T02:20:37.359Z,15.90
2019-04-25T02:23:05.955Z,15.80
2019-04-25T02:25:34.690Z,15.80
2019-04-25T02:28:05.542Z,15.80
2019-04-25T02:30:35.580Z,15.80
2019-04-25T02:33:08.808Z,15.70
2019-04-25T02:35:35.073Z,15.50
2019-04-25T02:38:08.364Z,15.40
2019-04-25T02:40:34.502Z,15.30
2019-04-25T02:43:07.940Z,15.30
2019-04-25T02:45:38.296Z,15.30
2019-04-25T02:48:09.217Z,15.30
2019-04-25T02:50:56.417Z,15.30
2019-04-25T02:53:29.405Z,15.40
2019-04-25T02:55:58.222Z,15.40
2019-04-25T02:58:27.266Z,15.40
2019-04-25T03:01:07.467Z,15.40
2019-04-25T03:03:27.684Z,15.40
2019-04-25T03:05:57.472Z,15.40
2019-04-25T03:08:26.775Z,15.40
2019-04-25T03:10:58.214Z,15.30
2019-04-25T03:13:26.410Z,15.30
2019-04-25T03:15:55.861Z,15.40
2019-04-25T03:18:26.325Z,15.40
2019-04-25T03:20:56.754Z,15.40
2019-04-25T03:23:34.877Z,15.40
2019-04-25T03:26:04.759Z,15.40
2019-04-25T03:28:34.462Z,15.40
2019-04-25T03:31:08.553Z,15.50
2019-04-25T03:33:37.764Z,15.50
2019-04-25T03:36:06.614Z,15.50
2019-04-25T03:38:36.100Z,15.50
2019-04-25T03:41:06.173Z,15.50
2019-04-25T03:43:35.565Z,15.50
2019-04-25T03:46:05.877Z,15.50
2019-04-25T03:48:36.819Z,15.40
2019-04-25T03:51:06.667Z,15.40
2019-04-25T03:53:35.577Z,15.40
2019-04-25T03:56:05.987Z,15.40
2019-04-25T03:58:34.842Z,15.40
2019-04-25T04:01:07.000Z,15.30
2019-04-25T04:03:34.777Z,15.20
2019-04-25T04:06:05.918Z,15.20
2019-04-25T04:08:35.644Z,15.10
2019-04-25T04:11:06.431Z,15.20
2019-04-25T04:13:35.085Z,15.10
2019-04-25T04:16:05.160Z,15.10
2019-04-25T04:18:35.708Z,15.00
2019-04-25T04:21:13.578Z,15.00
2019-04-25T04:23:50.083Z,15.00
2019-04-25T04:26:18.929Z,14.90
2019-04-25T04:28:47.696Z,14.80
2019-04-25T04:31:16.631Z,14.80
2019-04-25T04:33:45.429Z,14.90
2019-04-25T04:36:15.008Z,15.00
2019-04-25T04:38:44.667Z,14.80
2019-04-25T04:41:14.225Z,14.80
2019-04-25T04:43:44.155Z,14.70
2019-04-25T04:46:14.158Z,14.60
2019-04-25T04:48:43.882Z,14.60
2019-04-25T04:51:14.528Z,14.50
2019-04-25T04:53:43.869Z,14.50
2019-04-25T04:56:15.107Z,14.50
2019-04-25T04:58:43.358Z,14.50
2019-04-25T05:01:13.025Z,14.50
2019-04-25T05:03:56.262Z,14.50
2019-04-25T05:06:26.684Z,14.50
2019-04-25T05:08:57.099Z,14.40
2019-04-25T05:11:25.952Z,14.60
2019-04-25T05:13:54.797Z,14.60
2019-04-25T05:16:23.901Z,14.60
2019-04-25T05:18:55.076Z,14.70
2019-04-25T05:21:22.996Z,15.00
2019-04-25T05:23:51.481Z,15.30
2019-04-25T05:26:19.944Z,15.70
2019-04-25T05:28:48.453Z,15.70
2019-04-25T05:31:21.573Z,15.50
2019-04-25T05:33:50.034Z,15.30
2019-04-25T05:36:19.583Z,15.20
2019-04-25T05:38:48.159Z,15.40
2019-04-25T05:41:33.736Z,15.70
2019-04-25T05:44:04.462Z,16.20
2019-04-25T05:46:34.153Z,16.50
2019-04-25T05:49:03.513Z,16.80
2019-04-25T05:51:33.841Z,17.10
2019-04-25T05:54:04.064Z,17.40
2019-04-25T05:56:33.772Z,17.60
2019-04-25T05:59:03.372Z,17.60
2019-04-25T06:01:34.460Z,17.70
2019-04-25T06:04:03.664Z,17.80
2019-04-25T06:06:36.474Z,17.90
2019-04-25T06:09:09.156Z,18.10
2019-04-25T06:11:43.682Z,18.30
2019-04-25T06:14:14.206Z,18.30
2019-04-25T06:16:43.669Z,18.50
2019-04-25T06:19:18.367Z,18.60
2019-04-25T06:21:44.103Z,18.80
2019-04-25T06:24:25.469Z,18.80
2019-04-25T06:26:55.117Z,18.90
2019-04-25T06:29:23.952Z,19.20
2019-04-25T06:32:04.214Z,19.40
2019-04-25T06:34:25.436Z,19.70
2019-04-25T06:36:53.765Z,19.70
2019-04-25T06:39:22.262Z,19.70
2019-04-25T06:41:50.862Z,19.40
2019-04-25T06:44:35.874Z,19.10
2019-04-25T06:47:06.091Z,19.30
2019-04-25T06:49:43.203Z,19.30
2019-04-25T06:52:11.927Z,19.70
2019-04-25T06:54:40.395Z,19.80
2019-04-25T06:57:08.916Z,20.00
2019-04-25T06:59:41.000Z,20.00
2019-04-25T07:02:07.665Z,20.10
2019-04-25T07:04:36.173Z,19.90
2019-04-25T07:07:12.024Z,19.40
2019-04-25T07:09:35.969Z,19.10
2019-04-25T07:12:04.699Z,19.70
2019-04-25T07:14:33.826Z,20.10
2019-04-25T07:17:04.336Z,20.70
2019-04-25T07:19:34.311Z,20.30
2019-04-25T07:22:03.941Z,20.20
2019-04-25T07:24:34.162Z,20.50
2019-04-25T07:27:23.616Z,20.60
2019-04-25T07:30:09.909Z,20.60
2019-04-25T07:32:40.046Z,20.70
2019-04-25T07:35:08.841Z,21.20
2019-04-25T07:37:41.528Z,21.20
2019-04-25T07:40:09.548Z,21.00
2019-04-25T07:42:38.096Z,20.90
2019-04-25T07:45:09.769Z,21.10
2019-04-25T07:47:38.450Z,21.30
2019-04-25T07:50:07.616Z,21.80
2019-04-25T07:52:36.168Z,22.20
2019-04-25T07:55:05.786Z,22.60
2019-04-25T07:57:34.886Z,22.80
2019-04-25T08:00:10.269Z,22.70
2019-04-25T08:02:39.558Z,22.80
2019-04-25T08:05:11.088Z,23.20
2019-04-25T08:07:39.926Z,23.30
2019-04-25T08:10:09.751Z,23.30
2019-04-25T08:12:39.405Z,23.20
2019-04-25T08:15:16.137Z,23.00
2019-04-25T08:17:57.996Z,23.30
2019-04-25T08:20:28.424Z,23.50
2019-04-25T08:22:59.911Z,23.80
2019-04-25T08:25:29.377Z,24.00
2019-04-25T08:27:57.961Z,24.00
2019-04-25T08:30:26.565Z,24.00
2019-04-25T08:32:55.116Z,24.30
2019-04-25T08:35:24.058Z,24.30
2019-04-25T08:37:53.759Z,24.50
2019-04-25T08:40:23.778Z,24.50
2019-04-25T08:42:53.750Z,24.40
2019-04-25T08:45:24.262Z,24.20
2019-04-25T08:47:53.794Z,24.00
2019-04-25T08:50:31.159Z,23.90
2019-04-25T08:52:56.829Z,23.90
2019-04-25T08:55:42.044Z,23.20
2019-04-25T08:58:14.885Z,22.50
2019-04-25T09:01:01.539Z,22.50
2019-04-25T09:03:35.516Z,23.40
2019-04-25T09:06:05.298Z,24.30
2019-04-25T09:08:36.034Z,25.30
2019-04-25T09:11:04.073Z,25.70
2019-04-25T09:13:35.383Z,26.10
2019-04-25T09:16:03.620Z,26.30
2019-04-25T09:18:34.709Z,26.20
2019-04-25T09:21:03.866Z,26.20
2019-04-25T09:23:34.431Z,26.10
2019-04-25T09:26:04.004Z,26.00
2019-04-25T09:28:34.737Z,26.00
2019-04-25T09:31:03.971Z,26.30
2019-04-25T09:33:34.148Z,26.30
2019-04-25T09:36:02.732Z,25.90
2019-04-25T09:38:31.186Z,26.60
2019-04-25T09:40:59.656Z,26.80
2019-04-25T09:43:28.152Z,27.30
2019-04-25T09:46:00.951Z,27.20
2019-04-25T09:48:46.836Z,27.90
2019-04-25T09:51:23.614Z,28.80
2019-04-25T09:53:54.173Z,28.80
2019-04-25T09:56:30.070Z,27.80
2019-04-25T09:59:03.735Z,27.90
2019-04-25T10:01:33.761Z,27.70
2019-04-25T10:04:02.413Z,27.60
2019-04-25T10:06:30.913Z,28.00
2019-04-25T10:08:59.412Z,28.20
2019-04-25T10:11:28.388Z,28.10
2019-04-25T10:14:05.736Z,27.70
2019-04-25T10:16:35.050Z,28.60
2019-04-25T10:19:03.687Z,29.40
2019-04-25T10:21:32.160Z,28.60
2019-04-25T10:24:00.644Z,27.70
2019-04-25T10:26:29.845Z,28.00
2019-04-25T10:28:58.335Z,28.80
2019-04-25T10:31:26.784Z,29.40
2019-04-25T10:33:55.338Z,29.90
2019-04-25T10:36:24.691Z,31.10
2019-04-25T10:39:06.715Z,31.10
2019-04-25T10:41:24.468Z,30.00
2019-04-25T10:43:54.631Z,29.90
2019-04-25T10:46:24.414Z,30.00
2019-04-25T10:48:55.945Z,30.30
2019-04-25T10:51:23.980Z,31.00
2019-04-25T10:53:53.861Z,31.20
2019-04-25T10:56:24.338Z,31.60
2019-04-25T10:58:54.784Z,32.80
2019-04-25T11:01:24.407Z,32.20
2019-04-25T11:04:10.971Z,31.40
2019-04-25T11:06:39.509Z,31.10
2019-04-25T11:09:13.771Z,31.80
2019-04-25T11:11:43.135Z,32.50
2019-04-25T11:14:13.430Z,33.20
2019-04-25T11:16:42.720Z,33.60
2019-04-25T11:19:13.589Z,33.60
2019-04-25T11:21:44.285Z,32.80
2019-04-25T11:24:14.213Z,32.20
2019-04-25T11:26:44.685Z,32.80
2019-04-25T11:29:13.300Z,32.60
2019-04-25T11:31:47.006Z,33.20
2019-04-25T11:34:16.814Z,32.90
2019-04-25T11:36:45.728Z,33.50
2019-04-25T11:39:28.452Z,34.10
2019-04-25T11:41:57.116Z,33.80
2019-04-25T11:44:25.597Z,34.10
2019-04-25T11:46:54.084Z,34.50
2019-04-25T11:49:23.830Z,34.50
2019-04-25T11:51:52.487Z,34.90
2019-04-25T11:54:20.965Z,35.40
2019-04-25T11:56:49.449Z,34.60
2019-04-25T11:59:18.171Z,34.90
2019-04-25T12:01:47.651Z,34.70
2019-04-25T12:04:16.365Z,34.50
2019-04-25T12:06:46.045Z,35.00
2019-04-25T12:09:15.211Z,35.00
2019-04-25T12:11:46.510Z,35.50
2019-04-25T12:14:14.913Z,35.90
2019-04-25T12:16:46.089Z,35.90
2019-04-25T12:19:14.002Z,35.80
2019-04-25T12:21:42.579Z,35.50
2019-04-25T12:24:11.246Z,35.40
2019-04-25T12:26:39.720Z,35.30
2019-04-25T12:29:08.223Z,34.40
2019-04-25T12:31:36.801Z,35.30
2019-04-25T12:34:05.402Z,35.20
2019-04-25T12:36:34.149Z,35.60
2019-04-25T12:39:03.393Z,35.10
2019-04-25T12:41:32.231Z,35.80
2019-04-25T12:44:08.853Z,37.60
2019-04-25T12:46:39.084Z,37.50
2019-04-25T12:49:07.536Z,37.00
2019-04-25T12:51:36.025Z,37.50
2019-04-25T12:54:04.500Z,38.30
2019-04-25T12:56:34.104Z,37.40
2019-04-25T12:59:03.017Z,36.20
2019-04-25T13:01:33.270Z,36.30
2019-04-25T13:04:01.876Z,36.30
2019-04-25T13:06:30.386Z,37.00
2019-04-25T13:08:59.498Z,37.80
2019-04-25T13:11:27.997Z,35.90
2019-04-25T13:13:56.477Z,34.80
2019-04-25T13:16:25.134Z,34.20
2019-04-25T13:18:53.607Z,34.90
2019-04-25T13:21:23.437Z,35.70
2019-04-25T13:23:52.070Z,35.80
2019-04-25T13:26:24.646Z,35.40
2019-04-25T13:28:56.689Z,35.10
2019-04-25T13:31:29.510Z,35.00
2019-04-25T13:34:08.124Z,34.40
2019-04-25T13:36:36.669Z,35.70
2019-04-25T13:39:08.953Z,36.00
2019-04-25T13:41:37.485Z,35.30
2019-04-25T13:44:06.034Z,35.60
2019-04-25T13:46:34.609Z,36.20
2019-04-25T13:49:04.248Z,36.10
2019-04-25T13:51:33.255Z,36.40
2019-04-25T13:54:01.888Z,36.60
2019-04-25T13:56:30.687Z,37.70
2019-04-25T13:58:59.283Z,38.20
2019-04-25T14:01:27.854Z,37.80
2019-04-25T14:03:56.393Z,37.10
2019-04-25T14:06:24.875Z,36.90
2019-04-25T14:08:53.532Z,36.60
2019-04-25T14:11:23.952Z,36.40
2019-04-25T14:13:52.739Z,35.70
2019-04-25T14:16:37.965Z,35.80
2019-04-25T14:19:16.861Z,36.20
2019-04-25T14:21:45.576Z,37.10
2019-04-25T14:24:20.419Z,36.80
2019-04-25T14:26:44.224Z,36.00
2019-04-25T14:29:14.114Z,34.70
2019-04-25T14:31:47.947Z,35.30
2019-04-25T14:34:13.284Z,35.60
2019-04-25T14:36:41.893Z,34.90
2019-04-25T14:39:12.102Z,33.70
2019-04-25T14:41:40.585Z,32.80
2019-04-25T14:44:09.061Z,32.00
2019-04-25T14:46:37.826Z,31.60
2019-04-25T14:49:06.395Z,31.40
2019-04-25T14:51:34.927Z,30.80
2019-04-25T14:54:05.190Z,30.50
2019-04-25T14:56:38.300Z,29.90
2019-04-25T14:59:06.840Z,29.50
2019-04-25T15:01:44.419Z,29.20
2019-04-25T15:04:05.633Z,28.90
2019-04-25T15:06:34.188Z,28.60
2019-04-25T15:09:02.710Z,28.60
2019-04-25T15:11:31.511Z,28.70
2019-04-25T15:14:00.090Z,28.50
2019-04-25T15:16:29.061Z,28.30
2019-04-25T15:18:57.609Z,28.30
2019-04-25T15:21:26.251Z,28.20
2019-04-25T15:24:00.271Z,28.20
2019-04-25T15:26:25.329Z,27.90
2019-04-25T15:28:53.864Z,27.90
2019-04-25T15:31:22.337Z,27.70
2019-04-25T15:33:50.809Z,27.80
2019-04-25T15:36:20.970Z,27.80
2019-04-25T15:39:00.258Z,27.80
2019-04-25T15:41:30.603Z,27.60
2019-04-25T15:44:17.035Z,27.50
2019-04-25T15:46:47.181Z,27.20
2019-04-25T15:49:15.819Z,27.10
2019-04-25T15:51:44.328Z,27.10
2019-04-25T15:54:12.792Z,27.10
2019-04-25T15:56:41.537Z,27.10
2019-04-25T15:59:10.109Z,27.10
2019-04-25T16:01:38.595Z,27.00
2019-04-25T16:04:07.070Z,27.00
2019-04-25T16:06:36.332Z,26.90
2019-04-25T16:09:06.357Z,26.90
2019-04-25T16:11:35.131Z,26.90
2019-04-25T16:14:04.061Z,26.90
2019-04-25T16:16:33.249Z,26.80
2019-04-25T16:19:01.839Z,26.80
2019-04-25T16:21:30.992Z,26.60
2019-04-25T16:23:59.994Z,26.60
2019-04-25T16:26:29.453Z,26.50
2019-04-25T16:28:58.304Z,26.50
2019-04-25T16:31:28.072Z,26.40
2019-04-25T16:33:56.979Z,26.40
2019-04-25T16:36:25.479Z,26.30
2019-04-25T16:38:53.920Z,26.30
2019-04-25T16:41:23.589Z,26.00
2019-04-25T16:43:53.750Z,25.90
2019-04-25T16:46:23.068Z,25.80
2019-04-25T16:48:51.567Z,25.80
2019-04-25T16:51:20.198Z,25.80
2019-04-25T16:53:48.670Z,25.80
2019-04-25T16:56:17.132Z,25.70
2019-04-25T16:58:47.317Z,25.80
2019-04-25T17:01:16.077Z,25.70
2019-04-25T17:03:44.763Z,25.60
2019-04-25T17:06:13.392Z,25.50
2019-04-25T17:08:41.868Z,25.40
2019-04-25T17:11:10.484Z,25.40
2019-04-25T17:13:40.580Z,25.30
2019-04-25T17:16:26.833Z,25.30
2019-04-25T17:18:56.966Z,25.30
2019-04-25T17:21:25.644Z,25.30
2019-04-25T17:23:54.134Z,25.50
2019-04-25T17:26:22.964Z,25.60
2019-04-25T17:28:53.112Z,25.50
2019-04-25T17:31:28.888Z,25.40
2019-04-25T17:34:04.929Z,25.20
2019-04-25T17:36:36.052Z,25.10
2019-04-25T17:39:10.931Z,25.00
2019-04-25T17:41:40.330Z,25.00
2019-04-25T17:44:08.972Z,24.90
2019-04-25T17:46:37.436Z,24.80
2019-04-25T17:49:05.918Z,24.70
2019-04-25T17:51:34.495Z,24.70
2019-04-25T17:54:03.389Z,24.60
2019-04-25T17:56:32.143Z,24.60
2019-04-25T17:59:01.599Z,24.40
2019-04-25T18:01:30.179Z,24.30
2019-04-25T18:03:58.628Z,24.30
2019-04-25T18:06:27.109Z,24.20
2019-04-25T18:08:55.618Z,24.10
2019-04-25T18:11:24.139Z,24.00
2019-04-25T18:13:52.651Z,23.90
2019-04-25T18:16:22.853Z,23.80
2019-04-25T18:19:09.016Z,23.80
2019-04-25T18:21:38.515Z,23.70
2019-04-25T18:24:14.496Z,23.60
2019-04-25T18:26:53.708Z,23.50
2019-04-25T18:29:23.075Z,23.40
2019-04-25T18:31:51.591Z,23.30
2019-04-25T18:34:24.467Z,23.20
2019-04-25T18:36:54.548Z,23.20
2019-04-25T18:39:30.365Z,23.10
2019-04-25T18:42:16.534Z,23.00
2019-04-25T18:44:46.204Z,22.90
2019-04-25T18:47:14.736Z,22.90
2019-04-25T18:49:44.878Z,22.80
2019-04-25T18:52:15.025Z,22.80
2019-04-25T18:54:50.635Z,22.70
2019-04-25T18:57:20.842Z,22.60
2019-04-25T18:59:56.978Z,22.60
2019-04-25T19:02:39.795Z,22.50
2019-04-25T19:05:26.280Z,22.40
2019-04-25T19:07:54.778Z,22.40
2019-04-25T19:10:23.756Z,22.30
2019-04-25T19:12:52.223Z,22.20
2019-04-25T19:15:20.982Z,22.10
2019-04-25T19:17:49.513Z,22.10
2019-04-25T19:20:18.085Z,21.90
2019-04-25T19:22:46.585Z,21.80
2019-04-25T19:25:15.135Z,21.70
2019-04-25T19:27:44.102Z,21.60
2019-04-25T19:30:14.472Z,21.50
2019-04-25T19:32:43.036Z,21.40
2019-04-25T19:35:11.663Z,21.40
2019-04-25T19:37:40.554Z,21.30
2019-04-25T19:40:30.210Z,21.30
2019-04-25T19:43:02.318Z,21.20
2019-04-25T19:45:33.244Z,21.20
2019-04-25T19:48:01.157Z,21.20
2019-04-25T19:50:29.677Z,21.10
2019-04-25T19:52:58.410Z,21.10
2019-04-25T19:55:27.162Z,21.00
2019-04-25T19:57:55.655Z,21.00
2019-04-25T20:00:24.225Z,20.90
2019-04-25T20:03:00.349Z,20.90
2019-04-25T20:05:36.833Z,20.80
2019-04-25T20:08:18.941Z,20.70
2019-04-25T20:10:49.116Z,20.70
2019-04-25T20:13:17.674Z,20.60
2019-04-25T20:15:47.540Z,20.50
2019-04-25T20:18:16.130Z,20.40
2019-04-25T20:20:45.709Z,20.40
2019-04-25T20:23:14.511Z,20.30
2019-04-25T20:25:43.746Z,20.30
2019-04-25T20:28:13.357Z,20.30
2019-04-25T20:30:41.930Z,20.30
2019-04-25T20:33:10.430Z,20.30
2019-04-25T20:35:39.027Z,20.30
2019-04-25T20:38:07.605Z,20.20
2019-04-25T20:40:36.420Z,20.20
2019-04-25T20:43:05.011Z,20.10
2019-04-25T20:45:33.581Z,20.00
2019-04-25T20:48:02.123Z,20.00
2019-04-25T20:50:30.638Z,20.00
2019-04-25T20:52:59.489Z,19.90
2019-04-25T20:55:27.945Z,19.80
2019-04-25T20:57:56.495Z,19.70
2019-04-25T21:00:40.723Z,19.70
2019-04-25T21:03:09.452Z,19.70
2019-04-25T21:05:38.087Z,19.70
2019-04-25T21:08:06.842Z,19.60
2019-04-25T21:10:35.338Z,19.50
2019-04-25T21:13:05.477Z,19.50
2019-04-25T21:15:44.352Z,19.30
2019-04-25T21:18:29.531Z,19.30
2019-04-25T21:20:59.113Z,19.20
2019-04-25T21:23:27.729Z,19.20
2019-04-25T21:25:56.944Z,19.10
2019-04-25T21:28:25.499Z,19.10
2019-04-25T21:30:54.794Z,19.10
2019-04-25T21:33:23.388Z,19.00
2019-04-25T21:35:53.269Z,19.00
2019-04-25T21:38:22.261Z,19.10
2019-04-25T21:40:53.904Z,19.00
2019-04-25T21:43:24.643Z,19.00
2019-04-25T21:45:54.245Z,19.00
2019-04-25T21:48:23.103Z,19.00
2019-04-25T21:50:53.532Z,19.00
2019-04-25T21:53:22.432Z,18.90
2019-04-25T21:55:51.197Z,19.00
2019-04-25T21:58:19.979Z,19.00
2019-04-25T22:00:52.425Z,18.90
2019-04-25T22:03:23.818Z,18.90
2019-04-25T22:05:52.487Z,18.90
2019-04-25T22:08:21.045Z,18.90
2019-04-25T22:10:49.525Z,18.80
2019-04-25T22:13:18.398Z,18.80
2019-04-25T22:15:47.615Z,18.80
2019-04-25T22:18:16.429Z,18.80
2019-04-25T22:20:45.052Z,18.80
2019-04-25T22:23:13.874Z,18.80
2019-04-25T22:25:42.660Z,18.80
2019-04-25T22:28:11.506Z,18.80
2019-04-25T22:30:41.320Z,18.70
2019-04-25T22:33:14.376Z,18.70
2019-04-25T22:35:44.588Z,18.70
2019-04-25T22:38:15.854Z,18.70
2019-04-25T22:40:47.349Z,18.70
2019-04-25T22:43:16.633Z,18.70
2019-04-25T22:45:45.433Z,18.60
2019-04-25T22:48:15.698Z,18.60
2019-04-25T22:50:44.560Z,18.60
2019-04-25T22:53:21.831Z,18.50
2019-04-25T22:55:43.451Z,18.50
2019-04-25T22:58:12.032Z,18.50
2019-04-25T23:00:40.589Z,18.50
2019-04-25T23:03:12.549Z,18.40
2019-04-25T23:05:42.800Z,18.40
2019-04-25T23:08:14.313Z,18.50
2019-04-25T23:10:47.026Z,18.50
2019-04-25T23:13:15.769Z,18.50
2019-04-25T23:15:44.274Z,18.50
2019-04-25T23:18:13.423Z,18.50
2019-04-25T23:20:42.058Z,18.50
2019-04-25T23:23:11.720Z,18.50
2019-04-25T23:25:58.075Z,18.50
2019-04-25T23:28:28.628Z,18.50
2019-04-25T23:31:10.821Z,18.40
2019-04-25T23:33:39.794Z,18.40
2019-04-25T23:36:09.082Z,18.30
2019-04-25T23:38:39.170Z,18.30
2019-04-25T23:41:09.368Z,18.30
2019-04-25T23:43:38.025Z,18.30
2019-04-25T23:46:07.441Z,18.20
2019-04-25T23:48:36.952Z,18.20
2019-04-25T23:51:06.361Z,18.20
2019-04-25T23:53:35.245Z,18.20
2019-04-25T23:56:04.092Z,18.20
2019-04-25T23:58:34.256Z,18.10
